Alturas, Florida
Current Conditions -  °F | °C
As of 9:50 AM on Wednesday 22 Oct 2014 (Local Time) from KBOW Reporting Station
Scattered Clouds Scattered Clouds  
Wind Chill: 73°   Ceiling: Unl
Heat Index: 73°   Visibility: 10mi
Dew Point: 66°   Wind: 6mph
Humidity: 78%   Direction: 30°NNE
Pressure: 30.01"   Gusts: NA
Location:  27.87°N, 81.71°W
Report Text: KBOW 221350Z 03005KT 10SM SCT200 23/19 A3001
Loading
Personal Weather Stations






























Interactive Weather Map New forecast layout! Learn more

10-Day Weather Forecast

Advertisements
Track Severe Weather on mobile